createdAt,value
2022-10-23T00:01:46.784Z,10.52
2022-10-23T00:04:22.086Z,9.23
2022-10-23T00:06:50.743Z,9.80
2022-10-23T00:09:24.452Z,9.18
2022-10-23T00:11:53.238Z,10.18
2022-10-23T00:14:27.370Z,9.40
2022-10-23T00:16:54.671Z,9.63
2022-10-23T00:19:21.882Z,10.25
2022-10-23T00:21:49.328Z,9.45
2022-10-23T00:24:16.635Z,9.63
2022-10-23T00:26:43.887Z,8.77
2022-10-23T00:29:11.990Z,8.98
2022-10-23T00:31:39.717Z,8.05
2022-10-23T00:34:08.561Z,8.85
2022-10-23T00:36:38.009Z,8.80
2022-10-23T00:39:06.297Z,9.43
2022-10-23T00:41:34.560Z,8.18
2022-10-23T00:44:31.792Z,8.25
2022-10-23T00:47:00.275Z,7.63
2022-10-23T00:49:28.342Z,7.25
2022-10-23T00:52:07.278Z,7.43
2022-10-23T00:54:41.075Z,9.27
2022-10-23T00:57:15.026Z,8.50
2022-10-23T00:59:42.982Z,9.27
2022-10-23T01:02:10.708Z,8.20
2022-10-23T01:04:38.386Z,8.85
2022-10-23T01:07:19.809Z,8.70
2022-10-23T01:10:13.184Z,8.50
2022-10-23T01:13:14.274Z,8.95
2022-10-23T01:16:05.289Z,8.95
2022-10-23T01:18:59.143Z,9.50
2022-10-23T01:21:51.219Z,8.70
2022-10-23T01:24:57.814Z,9.93
2022-10-23T01:27:35.580Z,8.93
2022-10-23T01:30:10.353Z,9.32
2022-10-23T01:33:16.176Z,8.98
2022-10-23T01:36:06.096Z,9.63
2022-10-23T01:38:54.660Z,9.52
2022-10-23T01:41:44.236Z,7.65
2022-10-23T01:44:51.758Z,9.20
2022-10-23T01:47:28.928Z,9.40
2022-10-23T01:50:13.255Z,8.98
2022-10-23T01:52:43.097Z,9.57
2022-10-23T01:55:13.442Z,9.93
2022-10-23T01:57:44.711Z,10.38
2022-10-23T02:00:18.713Z,9.00
2022-10-23T02:02:55.314Z,9.10
2022-10-23T02:05:31.643Z,10.10
2022-10-23T02:08:01.232Z,9.30
2022-10-23T02:11:16.703Z,10.57
2022-10-23T02:14:18.990Z,7.97
2022-10-23T02:17:24.665Z,9.13
2022-10-23T02:20:35.894Z,9.68
2022-10-23T02:23:36.062Z,8.82
2022-10-23T02:26:19.476Z,10.18
2022-10-23T02:29:25.934Z,9.57
2022-10-23T02:31:53.440Z,9.50
2022-10-23T02:34:20.750Z,10.05
2022-10-23T02:36:51.009Z,9.38
2022-10-23T02:39:27.464Z,10.00
2022-10-23T02:42:22.074Z,9.55
2022-10-23T02:45:36.150Z,8.63
2022-10-23T02:48:38.988Z,10.25
2022-10-23T02:52:02.879Z,8.75
2022-10-23T02:55:04.046Z,9.40
2022-10-23T02:58:05.182Z,9.77
2022-10-23T03:00:37.577Z,11.45
2022-10-23T03:03:27.768Z,9.73
2022-10-23T03:05:55.840Z,10.02
2022-10-23T03:08:23.258Z,10.70
2022-10-23T03:10:51.389Z,11.00
2022-10-23T03:13:20.554Z,10.40
2022-10-23T03:15:50.781Z,9.10
2022-10-23T03:18:18.041Z,9.23
2022-10-23T03:20:49.294Z,9.95
2022-10-23T03:23:16.584Z,9.43
2022-10-23T03:25:43.919Z,9.90
2022-10-23T03:28:24.472Z,9.48
2022-10-23T03:30:52.408Z,8.57
2022-10-23T03:33:19.622Z,9.10
2022-10-23T03:35:49.620Z,8.38
2022-10-23T03:38:17.266Z,7.93
2022-10-23T03:40:44.711Z,7.75
2022-10-23T03:43:13.906Z,8.73
2022-10-23T03:45:41.430Z,8.60
2022-10-23T03:48:08.812Z,9.13
2022-10-23T03:50:36.790Z,7.63
2022-10-23T03:53:05.806Z,11.35
2022-10-23T03:55:34.779Z,8.65
2022-10-23T03:58:02.057Z,7.88
2022-10-23T04:00:29.409Z,8.10
2022-10-23T04:02:56.653Z,8.02
2022-10-23T04:05:23.844Z,7.43
2022-10-23T04:07:55.395Z,8.02
2022-10-23T04:10:25.538Z,7.90
2022-10-23T04:12:52.851Z,7.93
2022-10-23T04:15:20.148Z,7.85
2022-10-23T04:17:50.119Z,7.40
2022-10-23T04:20:20.505Z,7.78
2022-10-23T04:22:50.668Z,7.30
2022-10-23T04:25:20.233Z,7.88
2022-10-23T04:27:48.570Z,7.57
2022-10-23T04:30:15.906Z,7.80
2022-10-23T04:32:45.637Z,7.72
2022-10-23T04:35:12.816Z,7.80
2022-10-23T04:37:40.144Z,8.30
2022-10-23T04:40:09.037Z,6.50
2022-10-23T04:42:38.172Z,7.05
2022-10-23T04:45:06.668Z,7.38
2022-10-23T04:47:34.810Z,7.82
2022-10-23T04:50:04.821Z,7.47
2022-10-23T04:53:10.577Z,7.70
2022-10-23T04:56:07.508Z,7.65
2022-10-23T04:58:51.454Z,7.22
2022-10-23T05:01:19.299Z,6.90
2022-10-23T05:03:48.057Z,7.88
2022-10-23T05:06:15.811Z,7.55
2022-10-23T05:09:12.309Z,7.68
2022-10-23T05:12:02.413Z,7.60
2022-10-23T05:14:30.418Z,8.10
2022-10-23T05:17:16.262Z,7.57
2022-10-23T05:19:56.281Z,8.15
2022-10-23T05:22:32.077Z,7.50
2022-10-23T05:25:01.910Z,7.15
2022-10-23T05:27:31.990Z,6.95
2022-10-23T05:29:59.272Z,9.32
2022-10-23T05:32:32.228Z,7.88
2022-10-23T05:35:03.888Z,8.55
2022-10-23T05:37:31.752Z,8.32
2022-10-23T05:40:12.740Z,8.07
2022-10-23T05:42:41.931Z,7.78
2022-10-23T05:45:11.989Z,7.60
2022-10-23T05:48:05.844Z,7.70
2022-10-23T05:51:11.693Z,7.32
2022-10-23T05:54:02.133Z,7.60
2022-10-23T05:56:44.123Z,7.10
2022-10-23T05:59:22.961Z,7.30
2022-10-23T06:02:00.533Z,7.95
2022-10-23T06:04:42.790Z,7.45
2022-10-23T06:07:31.241Z,7.55
2022-10-23T06:10:06.291Z,7.80
2022-10-23T06:12:36.712Z,7.75
2022-10-23T06:15:06.200Z,6.95
2022-10-23T06:17:54.191Z,7.47
2022-10-23T06:20:25.287Z,8.48
2022-10-23T06:23:07.887Z,8.82
2022-10-23T06:26:00.990Z,7.63
2022-10-23T06:28:39.305Z,6.80
2022-10-23T06:31:12.507Z,7.88
2022-10-23T06:33:41.191Z,6.60
2022-10-23T06:36:10.702Z,7.13
2022-10-23T06:38:40.774Z,7.47
2022-10-23T06:41:16.767Z,6.60
2022-10-23T06:43:51.022Z,7.18
2022-10-23T06:46:41.246Z,8.07
2022-10-23T06:49:28.426Z,7.10
2022-10-23T06:51:58.757Z,7.00
2022-10-23T06:54:25.951Z,8.60
2022-10-23T06:57:11.513Z,7.57
2022-10-23T06:59:44.028Z,8.40
2022-10-23T07:02:11.401Z,6.57
2022-10-23T07:04:41.214Z,7.40
2022-10-23T07:07:14.521Z,7.90
2022-10-23T07:09:50.684Z,6.35
2022-10-23T07:12:20.604Z,7.72
2022-10-23T07:14:53.704Z,7.20
2022-10-23T07:17:21.925Z,6.72
2022-10-23T07:19:49.243Z,6.88
2022-10-23T07:22:16.606Z,7.57
2022-10-23T07:25:08.659Z,6.68
2022-10-23T07:27:39.465Z,7.28
2022-10-23T07:30:10.111Z,6.50
2022-10-23T07:32:46.503Z,6.50
2022-10-23T07:35:34.408Z,8.27
2022-10-23T07:38:08.239Z,6.83
2022-10-23T07:40:39.066Z,6.53
2022-10-23T07:43:09.348Z,6.47
2022-10-23T07:45:36.836Z,7.57
2022-10-23T07:48:12.740Z,8.27
2022-10-23T07:53:39.435Z,7.32
2022-10-23T07:56:38.815Z,5.63
2022-10-23T07:59:37.222Z,6.60
2022-10-23T08:02:15.364Z,5.90
2022-10-23T08:04:43.607Z,6.57
2022-10-23T08:07:21.273Z,6.35
2022-10-23T08:09:54.458Z,6.47
2022-10-23T08:12:21.629Z,5.82
2022-10-23T08:14:48.934Z,6.55
2022-10-23T08:17:17.445Z,5.90
2022-10-23T08:20:11.292Z,5.75
2022-10-23T08:22:42.738Z,7.05
2022-10-23T08:25:11.396Z,6.03
2022-10-23T08:27:39.092Z,6.13
2022-10-23T08:30:07.517Z,6.72
2022-10-23T08:32:34.672Z,6.30
2022-10-23T08:35:03.433Z,6.10
2022-10-23T08:37:32.619Z,5.75
2022-10-23T08:40:00.288Z,6.00
2022-10-23T08:45:42.871Z,5.82
2022-10-23T08:48:39.193Z,5.80
2022-10-23T08:51:39.932Z,6.00
2022-10-23T08:54:26.966Z,4.70
2022-10-23T08:57:18.098Z,5.00
2022-10-23T08:59:59.178Z,4.45
2022-10-23T09:02:27.446Z,5.50
2022-10-23T09:04:58.666Z,5.88
2022-10-23T09:07:53.180Z,5.80
2022-10-23T09:11:10.597Z,5.07
2022-10-23T09:14:13.896Z,5.32
2022-10-23T09:17:23.005Z,5.25
2022-10-23T09:20:41.165Z,5.57
2022-10-23T09:23:24.296Z,5.10
2022-10-23T09:25:57.018Z,5.28
2022-10-23T09:28:48.406Z,5.22
2022-10-23T09:31:19.595Z,6.15
2022-10-23T09:34:01.628Z,4.35
2022-10-23T09:36:29.841Z,5.32
2022-10-23T09:39:00.552Z,5.85
2022-10-23T09:41:43.114Z,5.00
2022-10-23T09:44:33.505Z,5.03
2022-10-23T09:47:06.721Z,6.45
2022-10-23T09:49:35.272Z,5.03
2022-10-23T09:52:08.134Z,4.97
2022-10-23T09:54:59.059Z,5.63
2022-10-23T09:57:43.290Z,5.30
2022-10-23T10:00:26.900Z,6.38
2022-10-23T10:03:06.949Z,5.18
2022-10-23T10:05:43.932Z,4.95
2022-10-23T10:08:58.434Z,5.32
2022-10-23T10:11:43.390Z,5.30
2022-10-23T10:14:35.140Z,4.78
2022-10-23T10:17:49.649Z,4.75
2022-10-23T10:20:40.363Z,6.00
2022-10-23T10:23:55.770Z,5.50
2022-10-23T10:26:52.721Z,4.40
2022-10-23T10:30:10.651Z,5.13
2022-10-23T10:32:53.997Z,5.28
2022-10-23T10:35:56.837Z,4.65
2022-10-23T10:38:51.608Z,5.68
2022-10-23T10:42:10.984Z,4.88
2022-10-23T10:45:17.631Z,4.55
2022-10-23T10:48:23.625Z,5.13
2022-10-23T10:51:51.527Z,4.75
2022-10-23T10:55:14.157Z,4.00
2022-10-23T10:58:17.410Z,4.38
